sensor_id;sensor_type;location;lat;lon;timestamp;pressure;altitude;pressure_sealevel;temperature;humidity
11347;BME280;5728;42.722;23.258;2023-07-13T00:00:26;95015.00;;;23.14;68.42
11347;BME280;5728;42.722;23.258;2023-07-13T00:02:52;95012.75;;;23.22;68.55
11347;BME280;5728;42.722;23.258;2023-07-13T00:05:19;95010.38;;;23.18;66.71
11347;BME280;5728;42.722;23.258;2023-07-13T00:07:46;95022.34;;;23.09;68.22
11347;BME280;5728;42.722;23.258;2023-07-13T00:10:13;95009.53;;;23.17;67.90
11347;BME280;5728;42.722;23.258;2023-07-13T00:12:40;95015.50;;;23.21;67.51
11347;BME280;5728;42.722;23.258;2023-07-13T00:15:12;95012.16;;;23.31;67.00
11347;BME280;5728;42.722;23.258;2023-07-13T00:17:40;95007.44;;;23.22;66.21
11347;BME280;5728;42.722;23.258;2023-07-13T00:20:08;95005.09;;;23.18;66.47
11347;BME280;5728;42.722;23.258;2023-07-13T00:22:35;94996.00;;;23.22;66.60
11347;BME280;5728;42.722;23.258;2023-07-13T00:25:02;94995.44;;;23.03;67.45
11347;BME280;5728;42.722;23.258;2023-07-13T00:27:29;94996.09;;;23.06;67.69
11347;BME280;5728;42.722;23.258;2023-07-13T00:29:57;94992.28;;;22.82;68.96
11347;BME280;5728;42.722;23.258;2023-07-13T00:32:24;94993.03;;;22.84;69.15
11347;BME280;5728;42.722;23.258;2023-07-13T00:34:52;95020.56;;;22.96;68.54
11347;BME280;5728;42.722;23.258;2023-07-13T00:37:19;94999.69;;;23.05;69.81
11347;BME280;5728;42.722;23.258;2023-07-13T00:39:46;95004.19;;;22.89;70.96
11347;BME280;5728;42.722;23.258;2023-07-13T00:42:13;95023.81;;;22.85;71.12
11347;BME280;5728;42.722;23.258;2023-07-13T00:44:39;94997.56;;;22.82;72.25
11347;BME280;5728;42.722;23.258;2023-07-13T00:47:06;94985.88;;;23.00;71.43
11347;BME280;5728;42.722;23.258;2023-07-13T00:49:34;94995.50;;;23.01;71.81
11347;BME280;5728;42.722;23.258;2023-07-13T00:52:05;94985.13;;;23.12;71.23
11347;BME280;5728;42.722;23.258;2023-07-13T00:54:35;94984.84;;;23.17;71.07
11347;BME280;5728;42.722;23.258;2023-07-13T00:57:06;94998.16;;;23.01;71.80
11347;BME280;5728;42.722;23.258;2023-07-13T00:59:34;94992.31;;;23.10;72.17
11347;BME280;5728;42.722;23.258;2023-07-13T01:02:03;94985.13;;;23.12;71.91
11347;BME280;5728;42.722;23.258;2023-07-13T01:04:30;94979.97;;;23.11;72.28
11347;BME280;5728;42.722;23.258;2023-07-13T01:06:57;95003.25;;;23.04;72.83
11347;BME280;5728;42.722;23.258;2023-07-13T01:09:26;94989.97;;;23.06;72.96
11347;BME280;5728;42.722;23.258;2023-07-13T01:11:53;94994.19;;;22.94;72.85
11347;BME280;5728;42.722;23.258;2023-07-13T01:14:20;94988.44;;;23.02;73.04
11347;BME280;5728;42.722;23.258;2023-07-13T01:16:48;94991.34;;;22.97;73.53
11347;BME280;5728;42.722;23.258;2023-07-13T01:19:24;94983.94;;;22.29;75.60
11347;BME280;5728;42.722;23.258;2023-07-13T01:21:56;94976.38;;;22.22;76.17
11347;BME280;5728;42.722;23.258;2023-07-13T01:24:23;94978.06;;;22.23;76.42
11347;BME280;5728;42.722;23.258;2023-07-13T01:26:51;94977.31;;;22.21;75.66
11347;BME280;5728;42.722;23.258;2023-07-13T01:29:18;94982.19;;;22.43;76.64
11347;BME280;5728;42.722;23.258;2023-07-13T01:31:44;94976.28;;;22.54;75.98
11347;BME280;5728;42.722;23.258;2023-07-13T01:34:11;94977.00;;;22.42;75.38
11347;BME280;5728;42.722;23.258;2023-07-13T01:36:38;94980.78;;;21.75;77.47
11347;BME280;5728;42.722;23.258;2023-07-13T01:39:06;94974.25;;;21.18;80.02
11347;BME280;5728;42.722;23.258;2023-07-13T01:41:32;94973.22;;;21.21;80.29
11347;BME280;5728;42.722;23.258;2023-07-13T01:43:59;94974.69;;;21.26;79.65
11347;BME280;5728;42.722;23.258;2023-07-13T01:46:26;94965.78;;;21.29;79.31
11347;BME280;5728;42.722;23.258;2023-07-13T01:48:53;94971.97;;;21.28;79.03
11347;BME280;5728;42.722;23.258;2023-07-13T01:51:20;94975.53;;;21.59;77.94
11347;BME280;5728;42.722;23.258;2023-07-13T01:53:47;94973.31;;;21.52;78.72
11347;BME280;5728;42.722;23.258;2023-07-13T01:56:16;94970.53;;;21.38;78.30
11347;BME280;5728;42.722;23.258;2023-07-13T01:58:44;94973.78;;;21.43;78.72
11347;BME280;5728;42.722;23.258;2023-07-13T02:01:11;94976.16;;;21.32;79.05
11347;BME280;5728;42.722;23.258;2023-07-13T02:03:38;94973.31;;;21.52;77.80
11347;BME280;5728;42.722;23.258;2023-07-13T02:06:04;94983.03;;;21.67;77.20
11347;BME280;5728;42.722;23.258;2023-07-13T02:08:32;94979.09;;;21.74;77.57
11347;BME280;5728;42.722;23.258;2023-07-13T02:10:59;94984.38;;;21.74;77.52
11347;BME280;5728;42.722;23.258;2023-07-13T02:13:27;94983.84;;;21.83;78.24
11347;BME280;5728;42.722;23.258;2023-07-13T02:15:54;94981.31;;;21.82;77.13
11347;BME280;5728;42.722;23.258;2023-07-13T02:18:21;94997.16;;;21.82;77.50
11347;BME280;5728;42.722;23.258;2023-07-13T02:20:47;94983.47;;;21.42;78.95
11347;BME280;5728;42.722;23.258;2023-07-13T02:23:14;94980.03;;;21.09;79.61
11347;BME280;5728;42.722;23.258;2023-07-13T02:25:41;94982.25;;;21.17;79.13
11347;BME280;5728;42.722;23.258;2023-07-13T02:28:07;94993.41;;;21.05;79.29
11347;BME280;5728;42.722;23.258;2023-07-13T02:30:36;94993.28;;;20.73;80.68
11347;BME280;5728;42.722;23.258;2023-07-13T02:33:04;94989.72;;;21.09;79.22
11347;BME280;5728;42.722;23.258;2023-07-13T02:35:30;94990.16;;;20.99;79.57
11347;BME280;5728;42.722;23.258;2023-07-13T02:37:57;94996.28;;;21.00;79.58
11347;BME280;5728;42.722;23.258;2023-07-13T02:40:24;94998.47;;;20.75;81.09
11347;BME280;5728;42.722;23.258;2023-07-13T02:42:51;94995.16;;;20.71;81.48
11347;BME280;5728;42.722;23.258;2023-07-13T02:45:18;95003.69;;;20.76;81.17
11347;BME280;5728;42.722;23.258;2023-07-13T02:47:46;95000.63;;;20.50;82.69
11347;BME280;5728;42.722;23.258;2023-07-13T02:50:13;94992.06;;;20.46;83.06
11347;BME280;5728;42.722;23.258;2023-07-13T02:52:40;94993.13;;;20.76;82.71
11347;BME280;5728;42.722;23.258;2023-07-13T02:55:07;94994.38;;;20.86;81.58
11347;BME280;5728;42.722;23.258;2023-07-13T02:57:34;94995.59;;;20.96;80.86
11347;BME280;5728;42.722;23.258;2023-07-13T03:00:01;94995.41;;;20.99;81.87
11347;BME280;5728;42.722;23.258;2023-07-13T03:02:30;95004.13;;;21.02;81.88
11347;BME280;5728;42.722;23.258;2023-07-13T03:04:59;95010.81;;;21.09;82.28
11347;BME280;5728;42.722;23.258;2023-07-13T03:07:25;95007.81;;;21.32;80.72
11347;BME280;5728;42.722;23.258;2023-07-13T03:09:54;95002.19;;;21.38;80.49
11347;BME280;5728;42.722;23.258;2023-07-13T03:12:21;95005.97;;;21.49;80.19
11347;BME280;5728;42.722;23.258;2023-07-13T03:14:48;95008.22;;;21.57;80.67
11347;BME280;5728;42.722;23.258;2023-07-13T03:17:15;95006.84;;;21.66;79.69
11347;BME280;5728;42.722;23.258;2023-07-13T03:19:41;95001.38;;;21.53;80.62
11347;BME280;5728;42.722;23.258;2023-07-13T03:22:10;95003.59;;;21.60;80.71
11347;BME280;5728;42.722;23.258;2023-07-13T03:24:37;95006.59;;;21.70;79.72
11347;BME280;5728;42.722;23.258;2023-07-13T03:27:05;95004.28;;;21.64;80.66
11347;BME280;5728;42.722;23.258;2023-07-13T03:29:32;95010.78;;;21.74;79.76
11347;BME280;5728;42.722;23.258;2023-07-13T03:31:58;95019.88;;;21.69;80.36
11347;BME280;5728;42.722;23.258;2023-07-13T03:34:25;95007.53;;;21.69;80.58
11347;BME280;5728;42.722;23.258;2023-07-13T03:36:54;95014.19;;;21.76;78.70
11347;BME280;5728;42.722;23.258;2023-07-13T03:39:22;95019.78;;;21.70;80.25
11347;BME280;5728;42.722;23.258;2023-07-13T03:41:49;95017.41;;;21.81;80.08
11347;BME280;5728;42.722;23.258;2023-07-13T03:44:16;95029.22;;;21.91;79.56
11347;BME280;5728;42.722;23.258;2023-07-13T03:46:44;95013.44;;;22.05;78.86
11347;BME280;5728;42.722;23.258;2023-07-13T03:49:11;95013.88;;;22.13;77.79
11347;BME280;5728;42.722;23.258;2023-07-13T03:51:38;95018.06;;;22.17;77.94
11347;BME280;5728;42.722;23.258;2023-07-13T03:54:05;95017.69;;;22.23;77.51
11347;BME280;5728;42.722;23.258;2023-07-13T03:56:33;95017.78;;;22.38;77.35
11347;BME280;5728;42.722;23.258;2023-07-13T03:59:00;95016.75;;;22.40;77.17
11347;BME280;5728;42.722;23.258;2023-07-13T04:01:27;95015.19;;;22.52;75.85
11347;BME280;5728;42.722;23.258;2023-07-13T04:03:54;95020.19;;;22.56;75.20
11347;BME280;5728;42.722;23.258;2023-07-13T04:06:22;95018.75;;;22.51;76.12
11347;BME280;5728;42.722;23.258;2023-07-13T04:08:52;95005.94;;;22.59;75.28
11347;BME280;5728;42.722;23.258;2023-07-13T04:11:20;95001.69;;;22.72;75.83
11347;BME280;5728;42.722;23.258;2023-07-13T04:13:48;95005.66;;;22.79;75.12
11347;BME280;5728;42.722;23.258;2023-07-13T04:16:16;95012.13;;;22.89;75.33
11347;BME280;5728;42.722;23.258;2023-07-13T04:18:44;95012.50;;;22.97;74.84
11347;BME280;5728;42.722;23.258;2023-07-13T04:21:11;95020.09;;;23.03;74.41
11347;BME280;5728;42.722;23.258;2023-07-13T04:23:38;95026.50;;;23.43;73.35
11347;BME280;5728;42.722;23.258;2023-07-13T04:26:06;95031.69;;;23.73;72.17
11347;BME280;5728;42.722;23.258;2023-07-13T04:28:34;95022.53;;;23.78;71.85
11347;BME280;5728;42.722;23.258;2023-07-13T04:31:02;95029.13;;;23.85;71.82
11347;BME280;5728;42.722;23.258;2023-07-13T04:33:29;95030.38;;;23.94;70.43
11347;BME280;5728;42.722;23.258;2023-07-13T04:35:56;95053.25;;;23.81;70.31
11347;BME280;5728;42.722;23.258;2023-07-13T04:38:26;95030.50;;;24.05;69.59
11347;BME280;5728;42.722;23.258;2023-07-13T04:40:55;95036.16;;;24.27;68.81
11347;BME280;5728;42.722;23.258;2023-07-13T04:43:22;95035.72;;;24.21;68.36
11347;BME280;5728;42.722;23.258;2023-07-13T04:45:50;95033.50;;;24.41;68.08
11347;BME280;5728;42.722;23.258;2023-07-13T04:48:18;95040.56;;;24.67;67.79
11347;BME280;5728;42.722;23.258;2023-07-13T04:50:45;95042.22;;;25.09;66.22
11347;BME280;5728;42.722;23.258;2023-07-13T04:53:12;95045.50;;;25.13;65.41
11347;BME280;5728;42.722;23.258;2023-07-13T04:55:38;95055.38;;;25.11;65.21
11347;BME280;5728;42.722;23.258;2023-07-13T04:58:06;95054.63;;;25.09;65.21
11347;BME280;5728;42.722;23.258;2023-07-13T05:00:33;95052.44;;;25.41;65.00
11347;BME280;5728;42.722;23.258;2023-07-13T05:03:00;95052.19;;;25.45;65.41
11347;BME280;5728;42.722;23.258;2023-07-13T05:05:28;95063.75;;;25.69;64.25
11347;BME280;5728;42.722;23.258;2023-07-13T05:07:55;95051.38;;;25.93;62.87
11347;BME280;5728;42.722;23.258;2023-07-13T05:10:22;95061.16;;;26.06;61.99
11347;BME280;5728;42.722;23.258;2023-07-13T05:12:49;95052.06;;;25.84;61.68
11347;BME280;5728;42.722;23.258;2023-07-13T05:15:16;95054.56;;;25.98;62.33
11347;BME280;5728;42.722;23.258;2023-07-13T05:17:46;95060.72;;;26.24;61.39
11347;BME280;5728;42.722;23.258;2023-07-13T05:20:13;95051.31;;;26.44;60.31
11347;BME280;5728;42.722;23.258;2023-07-13T05:22:42;95067.63;;;26.63;60.27
11347;BME280;5728;42.722;23.258;2023-07-13T05:25:09;95064.84;;;26.77;59.46
11347;BME280;5728;42.722;23.258;2023-07-13T05:27:38;95070.72;;;26.93;58.39
11347;BME280;5728;42.722;23.258;2023-07-13T05:30:06;95060.94;;;27.29;57.74
11347;BME280;5728;42.722;23.258;2023-07-13T05:32:36;95066.78;;;27.10;58.31
11347;BME280;5728;42.722;23.258;2023-07-13T05:35:03;95062.69;;;27.52;56.45
11347;BME280;5728;42.722;23.258;2023-07-13T05:37:30;95069.50;;;27.67;56.29
11347;BME280;5728;42.722;23.258;2023-07-13T05:39:58;95067.03;;;27.42;56.77
11347;BME280;5728;42.722;23.258;2023-07-13T05:42:25;95066.75;;;27.68;55.86
11347;BME280;5728;42.722;23.258;2023-07-13T05:44:52;95061.06;;;27.73;55.91
11347;BME280;5728;42.722;23.258;2023-07-13T05:47:19;95073.16;;;27.77;55.58
11347;BME280;5728;42.722;23.258;2023-07-13T05:49:46;95065.94;;;28.12;53.38
11347;BME280;5728;42.722;23.258;2023-07-13T05:52:12;95061.78;;;27.64;54.44
11347;BME280;5728;42.722;23.258;2023-07-13T05:54:39;95064.72;;;27.94;53.95
11347;BME280;5728;42.722;23.258;2023-07-13T05:57:07;95057.44;;;27.85;55.07
11347;BME280;5728;42.722;23.258;2023-07-13T05:59:35;95061.84;;;28.19;54.44
11347;BME280;5728;42.722;23.258;2023-07-13T06:02:02;95059.91;;;28.21;52.98
11347;BME280;5728;42.722;23.258;2023-07-13T06:04:29;95057.47;;;28.29;53.31
11347;BME280;5728;42.722;23.258;2023-07-13T06:06:56;95063.47;;;28.76;52.42
11347;BME280;5728;42.722;23.258;2023-07-13T06:09:22;95073.75;;;28.91;51.26
11347;BME280;5728;42.722;23.258;2023-07-13T06:11:49;95073.41;;;29.17;51.20
11347;BME280;5728;42.722;23.258;2023-07-13T06:14:17;95066.75;;;29.11;51.51
11347;BME280;5728;42.722;23.258;2023-07-13T06:16:44;95067.22;;;29.27;51.00
11347;BME280;5728;42.722;23.258;2023-07-13T06:19:13;95080.56;;;29.27;50.78
11347;BME280;5728;42.722;23.258;2023-07-13T06:21:40;95078.47;;;29.51;50.33
11347;BME280;5728;42.722;23.258;2023-07-13T06:24:07;95080.78;;;29.35;48.68
11347;BME280;5728;42.722;23.258;2023-07-13T06:26:39;95073.94;;;29.42;50.00
11347;BME280;5728;42.722;23.258;2023-07-13T06:29:07;95068.97;;;29.38;49.33
11347;BME280;5728;42.722;23.258;2023-07-13T06:31:35;95055.78;;;29.46;50.57
11347;BME280;5728;42.722;23.258;2023-07-13T06:34:02;95060.97;;;29.38;50.17
11347;BME280;5728;42.722;23.258;2023-07-13T06:36:29;95058.34;;;29.27;50.49
11347;BME280;5728;42.722;23.258;2023-07-13T06:38:56;95067.22;;;29.48;50.86
11347;BME280;5728;42.722;23.258;2023-07-13T06:41:23;95066.50;;;29.66;49.06
11347;BME280;5728;42.722;23.258;2023-07-13T06:43:51;95060.31;;;30.17;46.23
11347;BME280;5728;42.722;23.258;2023-07-13T06:46:21;95068.47;;;30.06;45.89
11347;BME280;5728;42.722;23.258;2023-07-13T06:48:50;95068.78;;;30.22;46.14
11347;BME280;5728;42.722;23.258;2023-07-13T06:51:17;95065.81;;;30.46;45.18
11347;BME280;5728;42.722;23.258;2023-07-13T06:53:44;95060.50;;;30.55;44.95
11347;BME280;5728;42.722;23.258;2023-07-13T06:56:11;95075.56;;;30.96;42.97
11347;BME280;5728;42.722;23.258;2023-07-13T06:58:38;95073.81;;;30.85;43.11
11347;BME280;5728;42.722;23.258;2023-07-13T07:01:05;95074.94;;;30.83;43.60
11347;BME280;5728;42.722;23.258;2023-07-13T07:03:32;95069.50;;;31.32;43.39
11347;BME280;5728;42.722;23.258;2023-07-13T07:06:12;95069.13;;;31.46;43.57
11347;BME280;5728;42.722;23.258;2023-07-13T07:08:40;95071.31;;;31.80;42.02
11347;BME280;5728;42.722;23.258;2023-07-13T07:11:11;95064.84;;;31.06;42.79
11347;BME280;5728;42.722;23.258;2023-07-13T07:13:38;95053.16;;;31.16;44.07
11347;BME280;5728;42.722;23.258;2023-07-13T07:16:05;95045.25;;;31.43;42.41
11347;BME280;5728;42.722;23.258;2023-07-13T07:18:32;95068.44;;;32.20;40.62
11347;BME280;5728;42.722;23.258;2023-07-13T07:20:59;95064.41;;;31.29;42.08
11347;BME280;5728;42.722;23.258;2023-07-13T07:23:27;95063.88;;;31.45;42.99
11347;BME280;5728;42.722;23.258;2023-07-13T07:25:54;95051.31;;;31.74;42.36
11347;BME280;5728;42.722;23.258;2023-07-13T07:28:21;95046.97;;;32.20;42.95
11347;BME280;5728;42.722;23.258;2023-07-13T07:30:48;95050.91;;;32.15;42.18
11347;BME280;5728;42.722;23.258;2023-07-13T07:33:15;95051.03;;;32.60;41.92
11347;BME280;5728;42.722;23.258;2023-07-13T07:35:42;95042.34;;;31.93;43.08
11347;BME280;5728;42.722;23.258;2023-07-13T07:38:09;95030.53;;;32.32;42.09
11347;BME280;5728;42.722;23.258;2023-07-13T07:40:38;95045.00;;;32.76;40.78
11347;BME280;5728;42.722;23.258;2023-07-13T07:43:05;95036.66;;;32.79;39.78
11347;BME280;5728;42.722;23.258;2023-07-13T07:45:32;95046.28;;;32.99;39.43
11347;BME280;5728;42.722;23.258;2023-07-13T07:47:59;95034.78;;;33.24;38.90
11347;BME280;5728;42.722;23.258;2023-07-13T07:50:27;95040.81;;;33.79;39.43
11347;BME280;5728;42.722;23.258;2023-07-13T07:52:54;95029.81;;;33.90;38.95
11347;BME280;5728;42.722;23.258;2023-07-13T07:55:22;95021.84;;;33.81;37.98
11347;BME280;5728;42.722;23.258;2023-07-13T07:57:52;95029.97;;;33.63;39.04
11347;BME280;5728;42.722;23.258;2023-07-13T08:00:19;95033.13;;;32.78;41.06
11347;BME280;5728;42.722;23.258;2023-07-13T08:02:46;95019.72;;;33.14;39.79
11347;BME280;5728;42.722;23.258;2023-07-13T08:05:13;95016.94;;;33.59;39.40
11347;BME280;5728;42.722;23.258;2023-07-13T08:07:40;95017.56;;;33.96;39.26
11347;BME280;5728;42.722;23.258;2023-07-13T08:10:08;95026.16;;;34.25;39.12
11347;BME280;5728;42.722;23.258;2023-07-13T08:12:35;95020.22;;;34.89;37.91
11347;BME280;5728;42.722;23.258;2023-07-13T08:15:05;95026.91;;;34.69;38.55
11347;BME280;5728;42.722;23.258;2023-07-13T08:17:32;95011.44;;;34.87;37.43
11347;BME280;5728;42.722;23.258;2023-07-13T08:19:59;95006.34;;;35.26;37.00
11347;BME280;5728;42.722;23.258;2023-07-13T08:22:26;95004.81;;;35.48;37.13
11347;BME280;5728;42.722;23.258;2023-07-13T08:24:53;94996.25;;;35.52;37.20
11347;BME280;5728;42.722;23.258;2023-07-13T08:27:21;94999.44;;;35.72;36.30
11347;BME280;5728;42.722;23.258;2023-07-13T08:29:49;94993.34;;;35.86;35.25
11347;BME280;5728;42.722;23.258;2023-07-13T08:32:18;94997.88;;;35.05;37.90
11347;BME280;5728;42.722;23.258;2023-07-13T08:34:45;94995.16;;;34.97;38.17
11347;BME280;5728;42.722;23.258;2023-07-13T08:37:12;94983.75;;;35.19;36.72
11347;BME280;5728;42.722;23.258;2023-07-13T08:39:39;94984.53;;;34.45;38.11
11347;BME280;5728;42.722;23.258;2023-07-13T08:42:12;94988.44;;;35.09;36.80
11347;BME280;5728;42.722;23.258;2023-07-13T08:44:47;94984.44;;;35.37;36.79
11347;BME280;5728;42.722;23.258;2023-07-13T08:47:21;94976.34;;;35.29;35.95
11347;BME280;5728;42.722;23.258;2023-07-13T08:49:49;94987.63;;;35.41;36.27
11347;BME280;5728;42.722;23.258;2023-07-13T08:52:26;94988.84;;;35.54;35.03
11347;BME280;5728;42.722;23.258;2023-07-13T08:54:57;94994.91;;;35.64;35.28
11347;BME280;5728;42.722;23.258;2023-07-13T08:57:30;95004.97;;;35.38;36.13
11347;BME280;5728;42.722;23.258;2023-07-13T08:59:57;95003.47;;;35.76;36.16
11347;BME280;5728;42.722;23.258;2023-07-13T09:02:36;95021.91;;;36.43;34.97
11347;BME280;5728;42.722;23.258;2023-07-13T09:05:12;95012.16;;;36.81;35.02
11347;BME280;5728;42.722;23.258;2023-07-13T09:07:52;95016.06;;;37.40;34.19
11347;BME280;5728;42.722;23.258;2023-07-13T09:10:27;95016.59;;;37.36;33.54
11347;BME280;5728;42.722;23.258;2023-07-13T09:13:03;95025.03;;;37.41;33.67
11347;BME280;5728;42.722;23.258;2023-07-13T09:15:35;95012.25;;;37.72;32.56
11347;BME280;5728;42.722;23.258;2023-07-13T09:18:08;95009.25;;;37.67;32.91
11347;BME280;5728;42.722;23.258;2023-07-13T09:20:37;95006.59;;;37.59;32.87
11347;BME280;5728;42.722;23.258;2023-07-13T09:23:13;95006.13;;;37.78;32.27
11347;BME280;5728;42.722;23.258;2023-07-13T09:25:41;95015.13;;;37.56;31.21
11347;BME280;5728;42.722;23.258;2023-07-13T09:28:12;95014.81;;;36.89;32.39
11347;BME280;5728;42.722;23.258;2023-07-13T09:30:46;95004.19;;;35.70;33.89
11347;BME280;5728;42.722;23.258;2023-07-13T09:33:20;95005.31;;;35.51;34.86
11347;BME280;5728;42.722;23.258;2023-07-13T09:35:47;94996.06;;;35.78;35.67
11347;BME280;5728;42.722;23.258;2023-07-13T09:38:15;95008.22;;;36.53;33.64
11347;BME280;5728;42.722;23.258;2023-07-13T09:40:49;95002.25;;;36.11;29.29
11347;BME280;5728;42.722;23.258;2023-07-13T09:43:20;94992.72;;;36.39;29.69
11347;BME280;5728;42.722;23.258;2023-07-13T09:45:48;94995.75;;;37.14;29.99
11347;BME280;5728;42.722;23.258;2023-07-13T09:48:16;94991.53;;;37.11;28.44
11347;BME280;5728;42.722;23.258;2023-07-13T09:50:45;94988.47;;;36.83;28.78
11347;BME280;5728;42.722;23.258;2023-07-13T09:53:13;94983.38;;;36.96;28.28
11347;BME280;5728;42.722;23.258;2023-07-13T09:55:42;94973.16;;;37.06;28.89
11347;BME280;5728;42.722;23.258;2023-07-13T09:58:12;94972.31;;;37.29;27.10
11347;BME280;5728;42.722;23.258;2023-07-13T10:00:39;94976.13;;;37.80;27.19
11347;BME280;5728;42.722;23.258;2023-07-13T10:03:16;94967.31;;;38.00;26.17
11347;BME280;5728;42.722;23.258;2023-07-13T10:05:47;94975.03;;;36.75;27.60
11347;BME280;5728;42.722;23.258;2023-07-13T10:08:18;94960.78;;;36.51;27.66
11347;BME280;5728;42.722;23.258;2023-07-13T10:10:45;94955.53;;;36.57;28.04
11347;BME280;5728;42.722;23.258;2023-07-13T10:13:29;94961.06;;;37.85;26.79
11347;BME280;5728;42.722;23.258;2023-07-13T10:15:58;94972.22;;;37.45;25.86
11347;BME280;5728;42.722;23.258;2023-07-13T10:18:26;94970.13;;;37.92;26.25
11347;BME280;5728;42.722;23.258;2023-07-13T10:21:08;94970.47;;;37.89;25.83
11347;BME280;5728;42.722;23.258;2023-07-13T10:23:36;94964.78;;;37.39;26.50
11347;BME280;5728;42.722;23.258;2023-07-13T10:26:05;94953.88;;;37.55;26.09
11347;BME280;5728;42.722;23.258;2023-07-13T10:28:37;94954.34;;;37.96;25.91
11347;BME280;5728;42.722;23.258;2023-07-13T10:31:10;94953.41;;;38.03;27.45
11347;BME280;5728;42.722;23.258;2023-07-13T10:33:38;94954.16;;;37.37;26.14
11347;BME280;5728;42.722;23.258;2023-07-13T10:36:20;94951.25;;;37.39;26.36
11347;BME280;5728;42.722;23.258;2023-07-13T10:38:51;94942.03;;;37.56;25.61
11347;BME280;5728;42.722;23.258;2023-07-13T10:41:21;94942.50;;;37.74;24.66
11347;BME280;5728;42.722;23.258;2023-07-13T10:43:51;94937.50;;;37.71;25.71
11347;BME280;5728;42.722;23.258;2023-07-13T10:46:22;94940.19;;;36.80;26.35
11347;BME280;5728;42.722;23.258;2023-07-13T10:48:55;94940.09;;;36.27;26.82
11347;BME280;5728;42.722;23.258;2023-07-13T10:51:25;94930.78;;;36.68;26.02
11347;BME280;5728;42.722;23.258;2023-07-13T10:54:20;94927.53;;;36.50;25.70
11347;BME280;5728;42.722;23.258;2023-07-13T10:56:53;94924.34;;;35.92;26.54
11347;BME280;5728;42.722;23.258;2023-07-13T10:59:25;94904.72;;;36.44;26.71
11347;BME280;5728;42.722;23.258;2023-07-13T11:01:56;94904.88;;;37.64;25.55
11347;BME280;5728;42.722;23.258;2023-07-13T11:04:25;94910.53;;;38.51;24.11
11347;BME280;5728;42.722;23.258;2023-07-13T11:06:58;94898.38;;;39.18;24.23
11347;BME280;5728;42.722;23.258;2023-07-13T11:09:37;94906.09;;;39.00;23.75
11347;BME280;5728;42.722;23.258;2023-07-13T11:12:26;94896.56;;;37.29;24.99
11347;BME280;5728;42.722;23.258;2023-07-13T11:15:06;94888.75;;;37.34;24.91
11347;BME280;5728;42.722;23.258;2023-07-13T11:17:46;94897.81;;;37.78;24.70
11347;BME280;5728;42.722;23.258;2023-07-13T11:20:30;94895.84;;;36.89;25.48
11347;BME280;5728;42.722;23.258;2023-07-13T11:23:15;94891.03;;;37.45;24.83
11347;BME280;5728;42.722;23.258;2023-07-13T11:25:45;94889.34;;;37.44;25.47
11347;BME280;5728;42.722;23.258;2023-07-13T11:28:23;94888.94;;;38.43;24.59
11347;BME280;5728;42.722;23.258;2023-07-13T11:31:01;94893.44;;;38.86;24.91
11347;BME280;5728;42.722;23.258;2023-07-13T11:33:49;94879.16;;;39.62;23.66
11347;BME280;5728;42.722;23.258;2023-07-13T11:36:18;94887.31;;;38.99;23.86
11347;BME280;5728;42.722;23.258;2023-07-13T11:38:57;94889.78;;;39.15;23.04
11347;BME280;5728;42.722;23.258;2023-07-13T11:41:28;94880.94;;;37.91;24.26
11347;BME280;5728;42.722;23.258;2023-07-13T11:44:06;94883.28;;;38.08;24.91
11347;BME280;5728;42.722;23.258;2023-07-13T11:46:33;94871.75;;;39.07;24.42
11347;BME280;5728;42.722;23.258;2023-07-13T11:49:00;94870.97;;;39.13;23.28
11347;BME280;5728;42.722;23.258;2023-07-13T11:51:29;94867.38;;;38.70;24.30
11347;BME280;5728;42.722;23.258;2023-07-13T11:54:01;94865.31;;;37.78;25.08
11347;BME280;5728;42.722;23.258;2023-07-13T11:56:29;94859.81;;;38.66;24.85
11347;BME280;5728;42.722;23.258;2023-07-13T11:59:04;94858.53;;;38.62;24.00
11347;BME280;5728;42.722;23.258;2023-07-13T12:01:32;94851.66;;;39.72;23.06
11347;BME280;5728;42.722;23.258;2023-07-13T12:04:00;94857.03;;;39.65;24.11
11347;BME280;5728;42.722;23.258;2023-07-13T12:06:30;94858.63;;;39.60;23.60
11347;BME280;5728;42.722;23.258;2023-07-13T12:09:00;94855.75;;;40.23;23.60
11347;BME280;5728;42.722;23.258;2023-07-13T12:11:29;94845.66;;;38.85;25.41
11347;BME280;5728;42.722;23.258;2023-07-13T12:13:56;94849.59;;;39.04;24.98
11347;BME280;5728;42.722;23.258;2023-07-13T12:16:28;94840.78;;;39.72;23.67
11347;BME280;5728;42.722;23.258;2023-07-13T12:18:58;94841.47;;;40.21;23.59
11347;BME280;5728;42.722;23.258;2023-07-13T12:21:31;94837.59;;;39.40;23.52
11347;BME280;5728;42.722;23.258;2023-07-13T12:24:00;94820.31;;;39.48;24.32
11347;BME280;5728;42.722;23.258;2023-07-13T12:26:29;94820.22;;;39.07;24.65
11347;BME280;5728;42.722;23.258;2023-07-13T12:28:59;94821.66;;;39.59;23.67
11347;BME280;5728;42.722;23.258;2023-07-13T12:31:33;94809.69;;;39.46;23.50
11347;BME280;5728;42.722;23.258;2023-07-13T12:34:02;94814.56;;;39.92;23.25
11347;BME280;5728;42.722;23.258;2023-07-13T12:36:31;94812.50;;;40.41;23.43
11347;BME280;5728;42.722;23.258;2023-07-13T12:39:09;94821.84;;;40.19;24.16
11347;BME280;5728;42.722;23.258;2023-07-13T12:41:38;94807.03;;;39.87;24.71
11347;BME280;5728;42.722;23.258;2023-07-13T12:44:12;94802.25;;;38.64;24.98
11347;BME280;5728;42.722;23.258;2023-07-13T12:46:39;94799.31;;;38.65;25.76
11347;BME280;5728;42.722;23.258;2023-07-13T12:49:25;94799.53;;;38.64;25.70
11347;BME280;5728;42.722;23.258;2023-07-13T12:51:56;94805.22;;;38.90;25.21
11347;BME280;5728;42.722;23.258;2023-07-13T12:54:27;94793.84;;;40.25;25.42
11347;BME280;5728;42.722;23.258;2023-07-13T12:56:55;94789.19;;;40.80;22.73
11347;BME280;5728;42.722;23.258;2023-07-13T12:59:27;94802.34;;;40.69;23.37
11347;BME280;5728;42.722;23.258;2023-07-13T13:01:56;94787.84;;;39.27;24.28
11347;BME280;5728;42.722;23.258;2023-07-13T13:04:23;94782.00;;;38.24;26.05
11347;BME280;5728;42.722;23.258;2023-07-13T13:07:01;94775.91;;;38.58;26.00
11347;BME280;5728;42.722;23.258;2023-07-13T13:09:29;94785.97;;;37.92;26.13